Terminal Aerodrome Forecast
Issued by NWS Cleveland, OH

Home | Current Version | Previous Version | Text Only | Print | Product List | Glossary Off
Versions: 1 2 3 4 5 6 7 8 9 10 11 12 13 14 15 16 17

000
FTUS41 KCLE 150900 AAD
TAFTOL
TAF AMD
KTOL 150913Z 1509/1606 34012KT 6SM -SN BR OVC015
      TEMPO 1509/1512 5SM -SN BR OVC008
     FM151200 31015G25KT P6SM SCT025 BKN045
      TEMPO 1512/1515 6SM -SHSN BKN025
     FM151500 31018G28KT P6SM BKN045
     FM152300 31012G18KT P6SM SCT250
     FM160300 30003KT P6SM SKC=

USA.gov is the U.S. government's official web portal to all federal, state and local government web resources and services.